Time;durP1;ratioP1;P1;durP2;ratioP2;P2;SDS_P1;SDS_P2;PMS_P1;PMS_P2;Temp;Humidity;BMP_temperature;BMP_pressure;BME280_temperature;BME280_humidity;BME280_pressure;Samples;Min_cycle;Max_cycle;Signal;HPM_P1;HPM_P2
2023/05/02 03:55:17;;;;;;;5.47;2.90;;;;;;;10.43;87.49;100508.41;5967697;27;20138;-84
2023/05/02 03:58:22;;;;;;;5.30;3.10;;;;;;;10.46;89.09;100509.09;5365125;33;33901;-84
2023/05/02 04:01:25;;;;;;;3.60;2.72;;;;;;;10.45;88.61;100513.62;5381306;33;34295;-84
2023/05/02 04:04:28;;;;;;;3.53;2.80;;;;;;;10.51;88.11;100515.63;5392304;33;34210;-84
2023/05/02 04:07:31;;;;;;;4.75;3.35;;;;;;;10.53;89.57;100515.44;5364837;33;34005;-87
2023/05/02 04:10:35;;;;;;;5.72;3.78;;;;;;;10.56;87.60;100520.47;5364478;33;33590;-87
2023/05/02 04:13:38;;;;;;;4.80;3.25;;;;;;;10.62;88.06;100523.31;5366474;33;34880;-87
2023/05/02 04:16:41;;;;;;;6.50;3.05;;;;;;;10.68;88.26;100527.19;5391130;33;33711;-87
2023/05/02 04:19:44;;;;;;;4.03;3.30;;;;;;;10.65;86.96;100528.34;5380431;33;33768;-87
2023/05/02 04:22:49;;;;;;;8.68;2.80;;;;;;;10.71;88.08;100523.28;5380426;33;34525;-87
2023/05/02 04:25:52;;;;;;;4.55;2.62;;;;;;;10.71;87.05;100526.00;5378822;33;33915;-87
2023/05/02 04:28:56;;;;;;;4.68;2.83;;;;;;;10.73;85.25;100527.47;5380499;33;34605;-87
2023/05/02 04:31:59;;;;;;;3.50;2.90;;;;;;;10.82;84.98;100526.44;5378679;33;34572;-87
2023/05/02 04:35:02;;;;;;;7.22;2.90;;;;;;;11.02;82.76;100528.69;5366737;33;33729;-87
2023/05/02 04:38:05;;;;;;;3.25;2.80;;;;;;;11.21;82.97;100532.78;5378615;33;33996;-87
2023/05/02 04:41:14;;;;;;;2.83;2.42;;;;;;;11.39;81.24;100537.88;5380293;33;33975;-87
2023/05/02 04:44:18;;;;;;;5.05;3.40;;;;;;;11.57;77.93;100531.16;5394850;33;33420;-87
2023/05/02 04:47:21;;;;;;;4.80;2.70;;;;;;;11.74;76.35;100534.56;5393194;33;33737;-87
2023/05/02 04:50:27;;;;;;;4.50;2.95;;;;;;;11.78;77.37;100537.75;5379822;33;34275;-85
2023/05/02 04:53:30;;;;;;;5.37;3.10;;;;;;;11.81;75.83;100542.78;5379073;33;34557;-85
2023/05/02 04:56:32;;;;;;;4.87;3.50;;;;;;;11.83;76.13;100554.22;5366776;33;33942;-85
2023/05/02 04:59:37;;;;;;;5.25;3.15;;;;;;;11.82;74.89;100547.16;5355211;33;33674;-85
2023/05/02 05:02:40;;;;;;;6.60;3.37;;;;;;;11.86;74.71;100553.91;5379169;33;33829;-86
2023/05/02 05:05:43;;;;;;;5.05;3.10;;;;;;;11.99;75.53;100539.78;5366844;33;33696;-85
2023/05/02 05:08:47;;;;;;;4.62;3.12;;;;;;;12.22;73.55;100548.66;5379003;33;35302;-85
2023/05/02 05:11:51;;;;;;;5.47;3.65;;;;;;;12.39;72.69;100546.63;5379069;33;34670;-85
2023/05/02 05:14:53;;;;;;;4.43;3.22;;;;;;;12.56;71.40;100541.87;5376652;33;33662;-87
2023/05/02 05:17:57;;;;;;;3.37;2.75;;;;;;;12.77;72.42;100549.22;5385483;33;35418;-90
2023/05/02 05:21:00;;;;;;;6.60;3.33;;;;;;;12.87;70.02;100546.22;5367458;33;33651;-90
2023/05/02 05:24:05;;;;;;;5.87;3.08;;;;;;;12.92;71.19;100547.31;5378600;33;34670;-86
2023/05/02 05:27:08;;;;;;;6.60;3.47;;;;;;;12.99;69.88;100555.53;5381738;33;33755;-86
2023/05/02 05:30:11;;;;;;;4.75;3.10;;;;;;;13.22;69.53;100552.69;5371573;33;33846;-86
2023/05/02 05:33:15;;;;;;;5.30;3.00;;;;;;;13.44;68.22;100555.44;5366716;33;33271;-86
2023/05/02 05:36:19;;;;;;;5.93;3.47;;;;;;;13.60;66.88;100557.88;5379738;33;34293;-86
2023/05/02 05:39:25;;;;;;;5.22;3.45;;;;;;;13.73;66.61;100558.00;5380050;33;33753;-86
2023/05/02 05:42:29;;;;;;;5.53;3.45;;;;;;;13.97;65.73;100564.06;5379234;33;34047;-85
2023/05/02 05:45:33;;;;;;;6.28;3.40;;;;;;;14.13;64.90;100566.47;5382891;33;34765;-85
2023/05/02 05:48:36;;;;;;;8.93;3.37;;;;;;;14.14;63.90;100568.16;5389837;33;34106;-86
2023/05/02 05:51:40;;;;;;;6.90;3.62;;;;;;;14.33;64.66;100568.47;5378075;33;35448;-85
2023/05/02 05:54:43;;;;;;;4.95;3.72;;;;;;;14.44;64.22;100576.06;5365975;33;34861;-85
2023/05/02 05:57:45;;;;;;;8.52;4.00;;;;;;;14.56;63.83;100579.91;5366044;33;34307;-85
2023/05/02 06:00:49;;;;;;;7.43;3.60;;;;;;;14.74;63.56;100585.69;5378050;33;33435;-85
2023/05/02 06:03:52;;;;;;;6.57;3.75;;;;;;;14.99;63.38;100577.03;5379196;33;34333;-86
2023/05/02 06:06:55;;;;;;;4.80;3.67;;;;;;;15.22;62.43;100592.16;5377892;33;33579;-86
2023/05/02 06:09:58;;;;;;;6.40;4.00;;;;;;;15.24;61.38;100580.06;5377881;33;34968;-86
2023/05/02 06:13:02;;;;;;;6.85;3.87;;;;;;;15.31;62.06;100580.06;5366005;33;33765;-86
2023/05/02 06:16:06;;;;;;;5.82;3.80;;;;;;;15.67;61.39;100578.91;5379736;33;34607;-86
2023/05/02 06:19:08;;;;;;;5.47;3.90;;;;;;;15.78;60.07;100576.44;5378038;33;33833;-86
2023/05/02 06:22:14;;;;;;;7.55;4.22;;;;;;;16.06;60.07;100581.69;5379417;33;33999;-86
2023/05/02 06:25:16;;;;;;;6.45;4.00;;;;;;;16.18;57.31;100578.34;5377794;33;34986;-86
2023/05/02 06:28:19;;;;;;;6.75;4.20;;;;;;;16.14;57.80;100586.06;5378128;33;33361;-85
2023/05/02 06:31:22;;;;;;;7.20;3.95;;;;;;;16.15;57.81;100579.59;5365953;33;33827;-86
2023/05/02 06:34:27;;;;;;;6.75;3.90;;;;;;;16.50;55.94;100580.19;5377377;33;33320;-86
2023/05/02 06:37:33;;;;;;;6.65;3.85;;;;;;;16.49;55.97;100578.50;5393518;33;34196;-86
2023/05/02 06:40:37;;;;;;;5.60;3.85;;;;;;;16.77;55.77;100580.16;5386852;33;34454;-86
2023/05/02 06:43:40;;;;;;;4.47;3.42;;;;;;;16.89;54.75;100583.88;5381681;33;34504;-86
2023/05/02 06:46:43;;;;;;;6.25;4.12;;;;;;;17.03;55.37;100575.69;5366171;33;33775;-86
2023/05/02 06:49:46;;;;;;;4.82;3.67;;;;;;;17.26;53.97;100577.84;5377876;33;33379;-86
2023/05/02 06:52:49;;;;;;;7.43;3.67;;;;;;;17.12;53.77;100580.66;5379156;33;34397;-86
2023/05/02 06:55:52;;;;;;;7.47;3.62;;;;;;;17.40;53.75;100584.91;5377436;33;33509;-86
2023/05/02 06:58:55;;;;;;;4.25;3.65;;;;;;;17.62;53.73;100583.53;5378259;33;33773;-86
2023/05/02 07:01:58;;;;;;;4.10;3.60;;;;;;;17.74;52.73;100575.50;5377576;33;33973;-86
2023/05/02 07:05:04;;;;;;;6.07;3.25;;;;;;;17.72;51.98;100579.47;5378543;33;34467;-86
2023/05/02 07:08:07;;;;;;;6.10;3.70;;;;;;;17.61;52.41;100575.59;5373218;33;33963;-86
2023/05/02 07:11:10;;;;;;;6.95;3.30;;;;;;;17.80;52.30;100571.91;5376816;33;34173;-86
2023/05/02 07:14:13;;;;;;;5.07;3.12;;;;;;;17.97;51.07;100582.28;5364618;33;33779;-86
2023/05/02 07:17:17;;;;;;;4.50;3.58;;;;;;;18.09;50.46;100580.50;5364834;33;33695;-86
2023/05/02 07:20:19;;;;;;;5.50;3.28;;;;;;;18.36;51.43;100581.09;5365074;33;34832;-86
2023/05/02 07:23:22;;;;;;;5.07;3.12;;;;;;;18.37;49.76;100571.88;5380465;33;33751;-86
2023/05/02 07:26:27;;;;;;;3.92;3.10;;;;;;;18.75;49.00;100570.88;5393713;33;35251;-87
2023/05/02 07:29:30;;;;;;;6.07;3.65;;;;;;;18.83;49.55;100570.56;5382634;33;35290;-90
2023/05/02 07:32:33;;;;;;;3.30;3.00;;;;;;;18.92;47.48;100568.34;5365267;33;33927;-91
2023/05/02 07:35:36;;;;;;;5.57;3.50;;;;;;;19.25;47.79;100571.53;5378205;33;34158;-88
2023/05/02 07:38:39;;;;;;;3.55;3.10;;;;;;;19.33;46.67;100574.97;5378078;33;34036;-88
2023/05/02 07:41:42;;;;;;;6.62;3.17;;;;;;;19.51;46.77;100577.69;5388771;33;35554;-86
2023/05/02 07:44:45;;;;;;;5.55;3.00;;;;;;;19.32;46.98;100576.88;5375123;33;34083;-86
2023/05/02 07:47:48;;;;;;;5.97;3.30;;;;;;;19.34;47.11;100584.84;5370490;33;34291;-85
2023/05/02 07:50:51;;;;;;;5.30;3.70;;;;;;;19.67;46.58;100589.87;5379139;33;33758;-87
2023/05/02 07:53:57;;;;;;;4.65;2.92;;;;;;;19.39;47.09;100585.84;5377117;33;34064;-88
2023/05/02 07:57:02;;;;;;;4.72;3.55;;;;;;;19.08;47.53;100595.03;5379453;33;33594;-86
2023/05/02 08:00:08;;;;;;;5.97;3.58;;;;;;;18.87;48.54;100579.97;5364929;33;33481;-88
2023/05/02 08:03:14;;;;;;;4.65;3.10;;;;;;;19.17;48.52;100582.75;5364773;33;33728;-88
2023/05/02 08:06:17;;;;;;;7.05;3.72;;;;;;;19.18;48.11;100581.69;5379156;33;34831;-89
2023/05/02 08:09:20;;;;;;;5.40;3.10;;;;;;;19.51;47.39;100585.87;5367217;33;33789;-90
2023/05/02 08:12:23;;;;;;;5.40;3.37;;;;;;;19.64;47.06;100591.12;5378261;33;33616;-87
2023/05/02 08:15:26;;;;;;;6.78;3.70;;;;;;;19.78;45.96;100582.78;5350985;33;33537;-87
2023/05/02 08:18:29;;;;;;;4.07;3.30;;;;;;;20.03;45.65;100582.59;5379310;33;33812;-87
2023/05/02 08:21:32;;;;;;;9.02;3.22;;;;;;;20.03;45.65;100586.16;5378693;33;33359;-87
2023/05/02 08:24:35;;;;;;;3.72;3.30;;;;;;;19.93;45.72;100585.91;5379309;33;33847;-87
2023/05/02 08:27:38;;;;;;;4.37;2.97;;;;;;;20.05;46.15;100581.28;5378056;33;32321;-87
2023/05/02 08:30:41;;;;;;;5.70;3.42;;;;;;;20.34;44.99;100590.47;5374243;33;33887;-87
2023/05/02 08:33:44;;;;;;;8.18;3.40;;;;;;;20.44;44.54;100580.84;5378141;33;33891;-87
2023/05/02 08:36:47;;;;;;;6.00;3.72;;;;;;;20.77;43.74;100577.53;5354691;33;33555;-87
2023/05/02 08:39:50;;;;;;;5.53;3.28;;;;;;;21.41;43.63;100572.00;5382015;33;33725;-87
2023/05/02 08:42:54;;;;;;;3.90;2.83;;;;;;;21.86;42.30;100576.66;5358985;33;34181;-87
2023/05/02 08:45:58;;;;;;;4.37;2.87;;;;;;;21.54;41.63;100574.44;5373219;33;34402;-87
2023/05/02 08:49:02;;;;;;;3.85;3.20;;;;;;;21.24;42.16;100566.44;5389268;33;34386;-87
2023/05/02 08:52:08;;;;;;;5.78;3.30;;;;;;;20.98;42.83;100568.66;5396824;33;35416;-87
2023/05/02 08:55:12;;;;;;;5.07;2.70;;;;;;;20.69;43.71;100561.47;5379655;33;33866;-87
2023/05/02 08:58:15;;;;;;;3.15;2.85;;;;;;;20.84;43.84;100564.53;5379080;33;33355;-86
2023/05/02 09:01:22;;;;;;;4.07;3.22;;;;;;;20.91;43.44;100564.38;5366997;33;33799;-88
2023/05/02 09:04:31;;;;;;;5.60;2.87;;;;;;;21.55;42.32;100567.88;5365748;33;33733;-88
2023/05/02 09:07:46;;;;;;;3.90;3.00;;;;;;;21.64;42.10;100560.91;5378438;33;33845;-88
2023/05/02 09:10:50;;;;;;;4.72;2.80;;;;;;;21.61;41.80;100553.19;5380745;33;34217;-88
2023/05/02 09:13:57;;;;;;;3.67;3.05;;;;;;;21.72;42.73;100546.81;5384446;33;34792;-88
2023/05/02 09:17:00;;;;;;;2.97;2.55;;;;;;;21.92;41.43;100546.34;5382604;33;35329;-88
2023/05/02 09:20:04;;;;;;;2.75;2.50;;;;;;;22.25;40.72;100541.94;5361485;33;34880;-91
2023/05/02 09:23:07;;;;;;;2.90;2.60;;;;;;;22.14;40.86;100538.22;5376744;33;33374;-88
2023/05/02 09:26:15;;;;;;;5.45;2.78;;;;;;;22.28;39.19;100540.62;5366092;33;33813;-88
2023/05/02 09:29:19;;;;;;;5.30;2.70;;;;;;;22.69;39.39;100539.28;5379210;33;33558;-88
2023/05/02 09:32:45;;;;;;;3.33;2.78;;;;;;;22.74;39.54;100544.84;5384398;33;33762;-88
2023/05/02 09:35:53;;;;;;;2.80;2.60;;;;;;;22.82;37.59;100536.16;5371533;33;34174;-88
2023/05/02 09:39:09;;;;;;;6.05;2.55;;;;;;;22.69;37.85;100544.75;5379058;33;34005;-88
2023/05/02 09:42:11;;;;;;;3.90;2.50;;;;;;;23.05;37.52;100545.28;5382156;33;34634;-88
2023/05/02 09:45:25;;;;;;;3.08;2.80;;;;;;;23.51;38.08;100549.31;5366061;33;33587;-88
2023/05/02 09:48:29;;;;;;;2.55;2.35;;;;;;;23.43;36.36;100543.47;5378658;33;33662;-88
2023/05/02 09:51:33;;;;;;;3.20;2.40;;;;;;;23.62;37.36;100541.19;5378022;33;33887;-88
2023/05/02 09:54:36;;;;;;;4.10;2.50;;;;;;;24.00;37.81;100537.41;5364406;33;34364;-88
2023/05/02 09:57:40;;;;;;;2.60;2.30;;;;;;;24.02;35.41;100529.75;5369413;33;289506;-88
2023/05/02 10:00:44;;;;;;;5.75;2.50;;;;;;;24.20;35.61;100534.81;5378723;33;33928;-88
2023/05/02 10:03:48;;;;;;;3.58;2.12;;;;;;;24.47;35.15;100531.16;5379823;33;34503;-87
2023/05/02 10:06:52;;;;;;;3.28;2.42;;;;;;;24.09;35.58;100541.34;5397572;33;35408;-88
2023/05/02 10:09:58;;;;;;;5.70;2.50;;;;;;;24.18;37.17;100517.75;5383209;33;35278;-88
2023/05/02 10:13:03;;;;;;;2.83;2.30;;;;;;;24.04;35.83;100527.53;5379845;33;34098;-88
2023/05/02 10:16:06;;;;;;;4.70;2.75;;;;;;;24.50;35.83;100527.06;5381024;33;34070;-88
2023/05/02 10:19:11;;;;;;;4.00;2.47;;;;;;;24.67;35.03;100516.69;5378300;33;34243;-88
2023/05/02 10:22:18;;;;;;;4.95;2.33;;;;;;;24.70;34.57;100507.87;5379172;33;33363;-88
2023/05/02 10:25:21;;;;;;;5.18;2.42;;;;;;;25.01;34.95;100514.34;5378114;33;34592;-88
2023/05/02 10:28:26;;;;;;;2.78;2.20;;;;;;;24.93;34.47;100511.28;5353762;33;33501;-88
2023/05/02 10:31:33;;;;;;;4.55;2.75;;;;;;;24.55;36.02;100521.59;5377741;33;33661;-88
2023/05/02 10:34:38;;;;;;;4.75;2.65;;;;;;;24.51;33.79;100510.28;5363670;33;33859;-88
2023/05/02 10:37:41;;;;;;;3.00;2.40;;;;;;;24.70;34.08;100509.81;5365445;33;34530;-88
2023/05/02 10:41:00;;;;;;;3.22;2.58;;;;;;;25.21;34.25;100508.06;5377396;33;34463;-92
2023/05/02 10:44:06;;;;;;;2.50;2.30;;;;;;;25.50;34.85;100502.88;5378529;33;33785;-88
2023/05/02 10:47:22;;;;;;;3.60;2.60;;;;;;;25.60;33.27;100515.06;5378533;33;34375;-88
2023/05/02 10:50:41;;;;;;;4.30;2.70;;;;;;;26.04;33.88;100520.03;5378965;33;34587;-88
2023/05/02 10:53:47;;;;;;;4.72;2.90;;;;;;;25.89;33.33;100501.56;5378790;33;32952;-88
2023/05/02 10:57:02;;;;;;;4.57;2.30;;;;;;;26.73;32.06;100504.69;5367087;33;33658;-88
2023/05/02 11:00:20;;;;;;;4.37;2.58;;;;;;;27.16;31.76;100502.31;5379600;33;33483;-88
2023/05/02 11:03:59;;;;;;;5.50;2.55;;;;;;;28.27;31.79;100499.78;5376805;33;33382;-88
2023/05/02 11:07:05;;;;;;;;;;;;;;;27.98;30.20;100508.09;5369206;33;34191;-88
2023/05/02 11:10:16;;;;;;;5.15;2.62;;;;;;;27.56;31.73;100506.75;5371272;33;34467;-88
2023/05/02 11:13:48;;;;;;;2.10;1.90;;;;;;;27.67;30.84;100501.94;5370681;33;33952;-88
2023/05/02 11:16:59;;;;;;;3.37;2.37;;;;;;;29.44;28.60;100486.38;5370924;33;33790;-88
2023/05/02 11:20:06;;;;;;;3.50;2.20;;;;;;;28.76;29.51;100486.78;5371102;33;34252;-88
2023/05/02 11:23:15;;;;;;;3.25;2.35;;;;;;;28.08;29.62;100496.94;5382082;33;34494;-88
2023/05/02 11:26:21;;;;;;;3.20;2.65;;;;;;;26.99;31.99;100486.91;5383788;33;33746;-88
2023/05/02 11:29:56;;;;;;;3.70;2.42;;;;;;;26.31;32.63;100490.19;5381068;33;33894;-87
2023/05/02 11:33:05;;;;;;;3.47;2.50;;;;;;;26.23;32.84;100485.22;5376078;33;33834;-87
2023/05/02 11:36:08;;;;;;;3.55;2.67;;;;;;;26.69;32.61;100485.94;5375313;33;34466;-87
2023/05/02 11:39:19;;;;;;;3.30;2.10;;;;;;;28.00;31.05;100473.47;5359263;33;33473;-87
2023/05/02 11:42:32;;;;;;;5.78;2.50;;;;;;;28.75;29.73;100468.47;5373017;33;33344;-87
2023/05/02 11:45:37;;;;;;;4.72;2.70;;;;;;;30.05;28.11;100465.09;5371387;33;33512;-87
2023/05/02 11:48:40;;;;;;;2.60;2.40;;;;;;;30.43;27.78;100471.34;5374001;33;33345;-88
2023/05/02 11:51:44;;;;;;;4.97;2.20;;;;;;;29.29;28.24;100468.03;5375543;33;33693;-88
2023/05/02 11:54:48;;;;;;;5.65;2.10;;;;;;;28.06;30.24;100465.13;5375637;33;34004;-88
2023/05/02 11:57:51;;;;;;;7.18;2.33;;;;;;;29.54;27.78;100458.47;5391931;33;33615;-88
2023/05/02 12:00:54;;;;;;;2.47;2.10;;;;;;;28.88;28.87;100457.50;5394304;33;35396;-88
2023/05/02 12:04:06;;;;;;;2.70;2.17;;;;;;;27.13;30.76;100462.22;5374324;33;33784;-87
2023/05/02 12:07:09;;;;;;;4.20;2.17;;;;;;;26.13;32.79;100458.50;5373922;33;34075;-87
2023/05/02 12:10:14;;;;;;;4.20;2.10;;;;;;;27.09;31.98;100452.88;5379284;33;33702;-87
2023/05/02 12:13:18;;;;;;;5.45;2.42;;;;;;;28.92;29.19;100453.00;5377203;33;33884;-87
2023/05/02 12:16:21;;;;;;;3.47;2.33;;;;;;;30.21;27.28;100446.22;5382370;33;33080;-92
2023/05/02 12:19:24;;;;;;;5.97;2.15;;;;;;;30.79;27.33;100451.16;5384740;33;35729;-91
2023/05/02 12:22:28;;;;;;;3.58;1.95;;;;;;;31.18;26.52;100438.56;5383348;33;35485;-91
2023/05/02 12:25:35;;;;;;;5.55;2.30;;;;;;;29.42;27.73;100435.09;5395816;32;36658;-91
2023/05/02 12:28:50;;;;;;;1.92;1.80;;;;;;;28.00;29.10;100440.25;5374962;33;34165;-88
2023/05/02 12:31:53;;;;;;;6.07;1.87;;;;;;;27.56;29.45;100432.91;5387619;33;34258;-88
2023/05/02 12:34:57;;;;;;;2.95;2.00;;;;;;;27.99;28.13;100438.62;5377716;33;34293;-88
2023/05/02 12:38:09;;;;;;;4.10;1.90;;;;;;;30.86;25.66;100434.03;5363920;33;34231;-88
2023/05/02 12:41:14;;;;;;;6.10;2.17;;;;;;;30.70;24.71;100439.91;5391753;33;35300;-88
2023/05/02 12:44:35;;;;;;;3.60;2.00;;;;;;;29.67;26.11;100434.69;5376569;33;35262;-89
2023/05/02 12:47:45;;;;;;;4.85;1.50;;;;;;;31.40;23.97;100432.25;5378248;33;34592;-89
2023/05/02 12:50:48;;;;;;;3.83;2.00;;;;;;;30.60;23.77;100425.44;5389704;33;33592;-89
2023/05/02 12:53:51;;;;;;;5.97;2.30;;;;;;;29.78;25.28;100427.03;5388043;33;35503;-88
2023/05/02 12:56:54;;;;;;;3.80;1.77;;;;;;;28.76;26.27;100434.94;5371148;33;33987;-88
2023/05/02 12:59:57;;;;;;;4.72;2.08;;;;;;;28.51;26.14;100425.00;5372111;33;34477;-88
2023/05/02 13:03:01;;;;;;;4.18;1.83;;;;;;;27.56;27.52;100432.09;5373988;33;33940;-87
2023/05/02 13:06:05;;;;;;;3.55;1.90;;;;;;;27.05;28.10;100429.66;5368502;33;34501;-87
2023/05/02 13:09:08;;;;;;;3.95;2.20;;;;;;;26.67;28.58;100423.81;5377015;33;34746;-87
2023/05/02 13:12:11;;;;;;;3.05;2.10;;;;;;;26.26;28.77;100423.13;5371807;33;33606;-87
2023/05/02 13:15:14;;;;;;;3.53;1.87;;;;;;;25.91;29.95;100427.63;5382822;33;33407;-87
2023/05/02 13:18:18;;;;;;;5.07;2.20;;;;;;;25.37;31.80;100418.00;5382046;33;34147;-88
2023/05/02 13:21:20;;;;;;;3.55;2.20;;;;;;;24.94;31.15;100413.78;5383168;33;33360;-87
2023/05/02 13:24:23;;;;;;;10.93;2.75;;;;;;;24.51;32.76;100419.47;5382325;33;34729;-87
2023/05/02 13:27:27;;;;;;;8.15;2.35;;;;;;;24.28;33.63;100412.44;5386110;33;33706;-87
2023/05/02 13:30:30;;;;;;;5.32;2.50;;;;;;;24.13;33.53;100415.94;5382729;33;33445;-89
2023/05/02 13:33:33;;;;;;;3.42;2.45;;;;;;;24.03;33.77;100420.56;5382874;33;34227;-88
2023/05/02 13:36:44;;;;;;;4.75;2.20;;;;;;;23.81;34.20;100423.44;5381617;33;34363;-89
2023/05/02 13:39:48;;;;;;;7.37;2.55;;;;;;;23.70;34.63;100406.06;5380650;33;34695;-88
2023/05/02 13:42:51;;;;;;;6.30;2.40;;;;;;;23.55;34.42;100409.50;5369850;33;33491;-90
2023/05/02 13:45:54;;;;;;;5.90;2.40;;;;;;;23.59;35.18;100409.78;5381221;33;33982;-89
2023/05/02 13:48:57;;;;;;;7.25;2.42;;;;;;;23.56;34.75;100413.87;5378636;33;33802;-87
2023/05/02 13:51:59;;;;;;;5.93;2.28;;;;;;;23.74;34.93;100413.50;5367727;33;33916;-91
2023/05/02 13:55:03;;;;;;;3.00;2.70;;;;;;;23.62;34.63;100414.75;5367202;33;35578;-92
2023/05/02 13:58:06;;;;;;;2.60;2.40;;;;;;;23.59;35.20;100418.03;5369759;33;34609;-88
2023/05/02 14:01:09;;;;;;;10.20;2.53;;;;;;;23.30;35.46;100412.84;5368414;33;34561;-88
2023/05/02 14:04:12;;;;;;;7.40;2.65;;;;;;;23.41;35.26;100409.09;5378283;33;33778;-88
2023/05/02 14:07:15;;;;;;;4.93;2.53;;;;;;;23.58;35.01;100405.38;5378324;33;33778;-89
2023/05/02 14:10:18;;;;;;;2.45;2.10;;;;;;;23.64;35.05;100416.16;5377863;33;34365;-88
2023/05/02 14:13:21;;;;;;;6.55;2.55;;;;;;;23.33;35.37;100412.31;5366094;33;34883;-88
2023/05/02 14:16:24;;;;;;;3.50;1.98;;;;;;;23.18;35.80;100415.75;5378181;33;34395;-88
2023/05/02 14:19:27;;;;;;;6.95;2.70;;;;;;;23.02;37.13;100413.94;5366135;33;33877;-88
2023/05/02 14:22:30;;;;;;;3.12;2.37;;;;;;;23.04;38.81;100411.78;5379706;33;33451;-87
2023/05/02 14:25:34;;;;;;;5.25;2.40;;;;;;;22.87;39.97;100420.06;5377940;33;33999;-87
2023/05/02 14:28:38;;;;;;;2.97;2.30;;;;;;;22.95;41.00;100419.66;5377389;33;34584;-88
2023/05/02 14:31:47;;;;;;;3.95;2.42;;;;;;;23.15;40.11;100416.28;5366064;33;34861;-88
2023/05/02 14:34:50;;;;;;;9.32;2.75;;;;;;;23.05;38.41;100410.72;5379961;33;33603;-88
2023/05/02 14:37:53;;;;;;;4.05;2.55;;;;;;;23.28;36.54;100415.88;5384643;33;34978;-87
2023/05/02 14:40:56;;;;;;;5.53;2.72;;;;;;;23.32;34.85;100418.91;5382294;33;35389;-88
2023/05/02 14:43:58;;;;;;;4.18;2.30;;;;;;;23.45;34.17;100412.12;5378925;33;33560;-88
2023/05/02 14:47:02;;;;;;;4.15;2.47;;;;;;;23.36;34.33;100411.78;5377576;33;34329;-88
2023/05/02 14:50:05;;;;;;;5.57;2.50;;;;;;;23.35;35.18;100412.06;5379602;33;34292;-87
2023/05/02 14:53:08;;;;;;;4.70;2.60;;;;;;;23.29;35.18;100416.69;5365498;33;35015;-88
2023/05/02 14:56:14;;;;;;;7.03;2.60;;;;;;;23.15;36.21;100415.47;5370568;33;34706;-88
2023/05/02 14:59:17;;;;;;;3.25;2.30;;;;;;;23.27;35.15;100422.44;5376795;33;34634;-87
2023/05/02 15:02:20;;;;;;;3.70;2.53;;;;;;;23.17;36.11;100416.87;5377555;33;34834;-86
2023/05/02 15:05:23;;;;;;;4.47;2.50;;;;;;;23.03;35.64;100412.88;5377691;33;33788;-87
2023/05/02 15:08:26;;;;;;;3.12;2.80;;;;;;;23.04;36.39;100411.78;5377794;33;34478;-87
2023/05/02 15:11:29;;;;;;;7.35;2.70;;;;;;;23.14;35.81;100417.38;5377441;33;33566;-87
2023/05/02 15:14:32;;;;;;;3.30;2.50;;;;;;;23.04;35.67;100415.34;5377186;33;33443;-87
2023/05/02 15:17:35;;;;;;;4.20;2.60;;;;;;;22.84;35.55;100413.22;5383019;33;33457;-87
2023/05/02 15:20:38;;;;;;;3.90;2.87;;;;;;;22.75;36.16;100416.66;5369982;33;33928;-87
2023/05/02 15:23:41;;;;;;;3.08;2.78;;;;;;;22.64;37.04;100429.44;5376087;33;34835;-87
2023/05/02 15:26:44;;;;;;;3.00;2.50;;;;;;;22.54;37.04;100421.91;5365813;33;34017;-87
2023/05/02 15:29:47;;;;;;;4.53;2.75;;;;;;;22.59;37.00;100419.22;5382871;33;33769;-86
2023/05/02 15:32:50;;;;;;;6.43;2.50;;;;;;;22.76;36.90;100410.91;5394079;33;34968;-87
2023/05/02 15:35:56;;;;;;;3.37;2.62;;;;;;;22.90;37.14;100413.25;5367665;33;33965;-87
2023/05/02 15:39:00;;;;;;;2.65;2.42;;;;;;;23.13;36.03;100412.97;5382630;33;34287;-87
2023/05/02 15:42:04;;;;;;;8.30;2.70;;;;;;;23.24;35.39;100406.47;5378367;33;34586;-87
2023/05/02 15:45:15;;;;;;;6.10;2.78;;;;;;;23.36;35.46;100413.72;5394632;33;35367;-87
2023/05/02 15:48:18;;;;;;;4.30;2.60;;;;;;;23.41;35.24;100411.03;5396725;33;35348;-87
2023/05/02 15:51:20;;;;;;;2.67;2.42;;;;;;;23.47;35.61;100407.22;5382529;33;34809;-87
2023/05/02 15:54:24;;;;;;;5.65;2.83;;;;;;;23.28;36.46;100410.37;5377744;33;33939;-87
2023/05/02 15:57:27;;;;;;;4.68;2.40;;;;;;;23.01;36.11;100399.37;5374397;27;34844;-87
